x

8452944 - Conimicut Light, Ri (cptr1) Weather Station

9:18 - Sat 24th Jun 2017 All times are EDT. -4 hours from GMT.

  • Wind
    6mph, 6mph gusts
  • Sea Temp 71°f
  • Luft Temp 76°f
  • Sea Pressure 1009.5mb
  • 8452944 - Conimicut Light, Ri
  • 8452944 - Conimicut Light, Ri

More Historic Weather Station data

Upgrade to MSW Pro to gain access to the past 30 days of data for over 8000 Wavebouys and Weather Stations around the globe.

Join Pro

Comparision Forecast

View Surf forecast
   
Sa 06/24 9:18 6 6 mph 1009.5mb 71f 76f
9:12 6 6 mph 1009.4mb 71f 76f
9:06 6 7 mph 1009.2mb 71f 76f
9:00 7 9 mph 1009mb 71f 76f
8:54 8 9 mph 1009mb 71f 76f
8:48 8 8 mph 1008.8mb 71f 77f
8:42 8 8 mph 1008.7mb 71f 78f
8:36 8 10 mph 1008.6mb 70f 78f
8:30 10 14 mph 1008.6mb 70f 78f
8:24 13 16 mph 1008.5mb 71f 79f
8:18 14 17 mph 1008.5mb 71f 79f
8:12 13 14 mph 1008.3mb 71f 79f
8:06 13 17 mph 1008.2mb 72f 79f
8:00 10 13 mph 1008.1mb 72f 79f
7:54 11 15 mph 1008mb 72f 80f
7:48 13 15 mph 1007.9mb 72f 80f
7:42 14 17 mph 1007.8mb 72f 80f
7:36 16 18 mph 1007.8mb 72f 80f
7:30 16 18 mph 1007.8mb 72f 80f
7:24 17 22 mph 1007.7mb 72f 80f
7:18 17 20 mph 1007.6mb 72f 80f
7:12 18 25 mph 1007.5mb 72f 81f
7:06 18 23 mph 1007.4mb 72f 80f
7:00 18 25 mph 1007.3mb 72f 81f
6:54 18 26 mph 1007mb 72f 81f
6:48 18 23 mph 1007.1mb 72f 81f
6:42 17 21 mph 1006.9mb 72f 81f
6:36 17 20 mph 1006.8mb 72f 82f
6:30 15 21 mph 1006.7mb 72f 80f
6:24 18 24 mph 1006.6mb 72f 81f
6:18 17 22 mph 1006.3mb 72f 81f
6:12 21 26 mph 1006.2mb 72f 82f
6:06 22 28 mph 1006mb 72f 82f
6:00 25 29 mph 1005.9mb 72f 82f
5:54 24 26 mph 1005.8mb 72f 82f
5:48 21 28 mph 1005.9mb 72f 82f
5:42 22 25 mph 1005.8mb 72f 83f
5:36 21 25 mph 1005.6mb 72f 82f
5:30 17 20 mph 1005.6mb 72f 82f
5:24 15 23 mph 1005.5mb 73f 82f
5:18 20 25 mph 1005.3mb 73f 82f
5:12 22 26 mph 1005.5mb 73f 82f
5:06 22 28 mph 1005.5mb 73f 82f
5:00 25 29 mph 1005.2mb 73f 82f
4:54 18 23 mph 1005.1mb 73f 82f
4:48 21 26 mph 1005mb 73f 83f
4:42 17 23 mph 1005mb 73f 82f
4:36 22 24 mph 1004.9mb 73f 82f
4:30 20 28 mph 1004.8mb 73f 82f
4:24 22 29 mph 1004.7mb 73f 82f
4:18 23 26 mph 1004.4mb 73f 82f
4:12 20 28 mph 1004.6mb 72f 82f
4:06 22 26 mph 1004.5mb 72f 82f
4:00 21 28 mph 1004.3mb 72f 82f
3:54 22 25 mph 1004mb 72f 82f
3:48 20 26 mph 1004.1mb 72f 82f
3:42 21 24 mph 1003.9mb 72f 82f
3:36 18 25 mph 1003.9mb 71f 82f
3:30 21 29 mph 1003.7mb 71f 82f
3:24 23 28 mph 1003.6mb 71f 82f
3:18 23 29 mph 1003.4mb 71f 82f
3:12 16 18 mph 1003.5mb 71f 82f
3:06 17 22 mph 1003.4mb 72f 82f
3:00 20 26 mph 1003.5mb 72f 82f
2:54 18 25 mph 1003.4mb 72f 81f
2:48 24 28 mph 1003.3mb 72f 81f
2:42 22 26 mph 1003.1mb 72f 81f
2:36 22 26 mph 1003.3mb 73f 81f
2:30 15 20 mph 1003mb 73f 80f
2:24 16 22 mph 1003mb 74f 80f
2:18 22 28 mph 1002.9mb 74f 80f
2:12 20 23 mph 1002.7mb 75f 80f
2:06 15 20 mph 1002.9mb 75f 79f
2:00 14 24 mph 1002.7mb 74f 79f
1:54 17 25 mph 1002.8mb 74f 79f
1:48 11 13 mph 1002.8mb 74f 78f
1:42 10 11 mph 1002.7mb 74f 77f
1:36 8 10 mph 1002.5mb 74f 77f
1:30 8 10 mph 1002.4mb 74f 77f
1:24 7 8 mph 1002.3mb 74f 76f
1:18 7 8 mph 1002.2mb 73f 76f
1:12 5 11 mph 1002.1mb 73f 76f
1:06 8 10 mph 1002mb 73f 76f
1:00 14 18 mph 1001.9mb 73f 76f
12:54 14 20 mph 1002mb 73f 77f
12:48 13 17 mph 1002.2mb 73f 77f
12:42 11 20 mph 1002.1mb 73f 77f
12:36 14 18 mph 1001.9mb 73f 77f
12:30 11 15 mph 1002mb 73f 76f
12:24 3 10 mph 1002mb 73f 73f
12:18 5 6 mph 1001.9mb 73f 72f
12:12 3 6 mph 1002mb 73f 72f
12:06 3 5 mph 1002mb 73f 71f
12:00 5 5 mph 1002mb 73f 71f
11:54 5 7 mph 1001.9mb 73f 71f
11:48 7 7 mph 1001.9mb 73f 71f
11:42 8 8 mph 1001.9mb 73f 70f
11:36 7 8 mph 1001.9mb 73f 70f
11:30 8 10 mph 1001.7mb 73f 70f
11:24 10 11 mph 1001.6mb 72f 70f
11:18 8 9 mph 1001.7mb 72f 70f
11:12 9 11 mph 1001.7mb 72f 70f
11:06 10 11 mph 1001.7mb 73f 70f
11:00 10 11 mph 1001.6mb 73f 70f
10:54 10 13 mph 1001.8mb 73f 69f
10:48 10 11 mph 1001.8mb 73f 69f
10:42 10 13 mph 1001.7mb 73f 70f
10:36 11 15 mph 1001.9mb 73f 70f
10:30 13 15 mph 1001.7mb 73f 70f
10:24 13 14 mph 1001.7mb 73f 70f
10:18 11 15 mph 1001.7mb 73f 70f
10:12 15 16 mph 1001.7mb 73f 70f
10:06 9 10 mph 1001.5mb 73f 70f
10:00 6 6 mph 1001.2mb 73f 71f
9:54 3 3 mph 1000.9mb 73f 71f
9:48 3 5 mph 1001.1mb 73f 71f
9:42 5 7 mph 1001.3mb 73f 71f
9:36 6 7 mph 1001.5mb 73f 71f
9:30 7 10 mph 1001.6mb 73f 71f
9:24 9 10 mph 1001.9mb 73f 71f
9:18 10 11 mph 1001.7mb 73f 71f
9:12 9 11 mph 1001.8mb 72f 72f
9:06 10 13 mph 1001.8mb 72f 72f
9:00 10 13 mph 1001.9mb 72f 72f
8:48 11 14 mph 1002.1mb 72f 72f
8:42 13 20 mph 1002.1mb 72f 72f
8:36 16 22 mph 1002.5mb 72f 73f
8:30 16 17 mph 1002.3mb 72f 73f
8:24 15 18 mph 1002.1mb 72f 72f
8:18 15 20 mph 1001.8mb 72f 72f
8:12 17 18 mph 1001.8mb 72f 72f
8:06 17 18 mph 1001.5mb 72f 72f
8:00 17 20 mph 1001.5mb 72f 72f
7:54 17 20 mph 1001.5mb 72f 71f
7:48 18 21 mph 1001.3mb 72f 72f
7:42 18 21 mph 1001.2mb 72f 71f
7:36 18 23 mph 1001.2mb 72f 71f
7:30 21 22 mph 1001.2mb 72f 71f
7:24 21 22 mph 1001.3mb 72f 71f
7:18 20 21 mph 1001.3mb 72f 71f
7:12 20 21 mph 1001.4mb 72f 71f
7:06 20 21 mph 1001.4mb 72f 71f
7:00 20 21 mph 1001.5mb 72f 71f
6:54 15 16 mph 1001.5mb 72f 71f
6:48 15 17 mph 1001.5mb 72f 71f
6:42 16 20 mph 1001.6mb 72f 71f
6:36 16 16 mph 1001.4mb 72f 71f
6:30 16 18 mph 1001.3mb 71f 70f
6:24 18 20 mph 1001.3mb 71f 70f
6:18 20 22 mph 1001.3mb 71f 70f
6:12 21 22 mph 1001.3mb 71f 70f
6:06 20 22 mph 1001.3mb 71f 70f
6:00 20 21 mph 1001.2mb 70f 70f
5:54 20 22 mph 1001.3mb 71f 70f
5:48 18 20 mph 1001.3mb 71f 70f
5:42 17 18 mph 1001.3mb 71f 70f
5:36 16 18 mph 1001.4mb 72f 69f
5:30 16 18 mph 1001.4mb 72f 70f
5:24 17 18 mph 1001.5mb 72f 70f
5:18 16 17 mph 1001.4mb 73f 70f
5:12 17 18 mph 1001.3mb 73f 70f
5:06 17 21 mph 1001.1mb 73f 70f
5:00 17 23 mph 1001.1mb 73f 70f
4:54 18 22 mph 1001.1mb 73f 70f
4:48 20 21 mph 1001.1mb 73f 70f
4:42 18 21 mph 1001.1mb 73f 70f
4:36 18 21 mph 1001.1mb 73f 70f
4:30 21 22 mph 1001.1mb 73f 70f
4:24 21 23 mph 1001.2mb 73f 70f
4:18 21 22 mph 1001.1mb 73f 70f
4:12 20 22 mph 1001.2mb 73f 70f
4:06 18 21 mph 1001.2mb 73f 70f
4:00 17 20 mph 1001.2mb 73f 70f
3:54 16 17 mph 1001.3mb 73f 70f
3:48 16 17 mph 1001.5mb 73f 70f
3:42 15 17 mph 1001.6mb 73f 70f
3:36 16 17 mph 1001.6mb 73f 70f
3:30 16 18 mph 1001.5mb 73f 70f
3:24 17 18 mph 1001.5mb 73f 70f
3:18 16 20 mph 1001.6mb 73f 71f
3:12 17 20 mph 1001.6mb 73f 71f
3:06 17 18 mph 1001.6mb 73f 71f
3:00 18 21 mph 1001.6mb 73f 71f
2:48 18 21 mph - - -
2:42 20 21 mph 1001.7mb 73f 72f
2:36 18 21 mph 1001.7mb 73f 72f
2:30 16 18 mph 1001.7mb 73f 72f
2:24 17 20 mph 1001.9mb 73f 73f
2:18 14 18 mph 1002mb 73f 73f
2:12 15 18 mph 1002.3mb 73f 73f
2:06 14 18 mph 1002.4mb 73f 73f
2:00 16 21 mph 1002.5mb 73f 73f
1:54 15 17 mph 1002.5mb 73f 73f
1:48 16 18 mph 1002.5mb 74f 73f
1:42 16 18 mph 1002.5mb 74f 73f
1:36 15 18 mph 1002.6mb 73f 73f
1:30 14 18 mph 1002.7mb 73f 73f
1:24 15 18 mph 1002.8mb 73f 73f
1:18 15 18 mph 1002.7mb 73f 73f
1:12 14 17 mph 1002.7mb 73f 73f
1:06 14 18 mph 1002.8mb 73f 73f
1:00 15 17 mph 1003mb 73f 73f
12:54 14 17 mph 1002.8mb 73f 73f
12:48 17 21 mph 1002.9mb 73f 73f
12:42 15 18 mph 1002.9mb 73f 73f
12:36 15 21 mph 1002.9mb 73f 73f
12:30 15 20 mph 1002.9mb 73f 73f
12:24 16 20 mph 1003.2mb 73f 73f
12:18 16 20 mph 1003.1mb 73f 73f
12:12 15 20 mph 1003.2mb 73f 73f
12:06 14 21 mph 1003.2mb 73f 72f
12:00 15 20 mph 1003.4mb 73f 72f
Fr 06/23 11:54 15 17 mph 1003.5mb 73f 72f
11:48 15 17 mph 1003.5mb 73f 72f
11:42 15 20 mph 1003.6mb 73f 72f
11:36 16 20 mph 1003.7mb 73f 72f
11:30 15 18 mph 1003.8mb 73f 72f
11:24 14 16 mph 1003.9mb 73f 72f
11:18 14 17 mph 1004mb 73f 72f
11:12 14 17 mph 1004mb 73f 72f
11:06 14 20 mph 1004mb 73f 72f
11:00 16 21 mph 1004.1mb 73f 72f
10:54 15 20 mph 1003.9mb 73f 72f
10:48 16 18 mph 1003.9mb 72f 72f
10:42 15 18 mph 1004.1mb 72f 72f
10:36 16 18 mph 1004.3mb 72f 72f
10:30 18 22 mph 1004.3mb 73f 72f
10:24 18 21 mph 1004.2mb 73f 72f
10:18 17 21 mph 1004.2mb 73f 72f
10:12 17 21 mph 1004.3mb 73f 72f
10:06 17 22 mph 1004.4mb 73f 72f
10:00 20 23 mph 1004.6mb 73f 72f
9:54 20 25 mph 1004.5mb 73f 72f
9:48 21 24 mph 1004.6mb 73f 72f
9:42 16 22 mph 1004.3mb 73f 72f
9:36 17 20 mph 1004.4mb 73f 72f
9:30 16 22 mph 1004.4mb 73f 72f
9:24 16 20 mph 1004.3mb 73f 71f
9:18 15 20 mph 1004.2mb 73f 71f
9:12 16 21 mph 1004.2mb 73f 71f
9:06 18 21 mph 1004mb 73f 71f
9:00 18 21 mph 1004mb 73f 71f
8:54 17 22 mph 1004mb 73f 71f
8:48 18 22 mph 1004mb 73f 71f
8:42 20 24 mph 1003.9mb 73f 71f
8:36 21 24 mph 1004.1mb 73f 71f
8:30 20 22 mph 1004mb 73f 71f
8:24 18 21 mph 1004.1mb 73f 71f
8:18 18 22 mph 1004.1mb 73f 71f
8:12 18 20 mph 1004.1mb 73f 71f
8:06 16 20 mph 1004.2mb 73f 72f
8:00 16 18 mph 1004.2mb 73f 72f
7:54 16 20 mph 1004.3mb 73f 72f
7:48 17 21 mph 1004.3mb 73f 72f
7:42 18 21 mph 1004.1mb 73f 72f
7:36 18 22 mph 1004.1mb 73f 72f
7:30 18 21 mph 1004.3mb 73f 72f
7:24 21 24 mph 1004.2mb 73f 71f
7:18 21 23 mph 1004.3mb 73f 71f
7:12 21 24 mph 1004.3mb 73f 71f
7:06 21 24 mph 1004.2mb 73f 71f
7:00 22 25 mph 1004.4mb 73f 71f
6:54 22 24 mph 1004.4mb 73f 71f
6:48 21 24 mph 1004.3mb 73f 71f
6:42 22 24 mph 1004.3mb 73f 71f
6:36 23 24 mph 1004.5mb 73f 71f
6:30 22 25 mph 1004.4mb 73f 71f
6:24 21 25 mph 1004.5mb 73f 71f
6:18 22 25 mph 1004.4mb 73f 71f
6:12 23 28 mph 1004.6mb 73f 72f
6:06 25 30 mph 1004.5mb 73f 72f
6:00 26 32 mph 1004.6mb 73f 72f
5:54 26 31 mph 1004.7mb 73f 72f
5:48 28 32 mph 1004.5mb 72f 72f
5:42 29 34 mph 1004.4mb 72f 73f
5:36 26 31 mph 1004.4mb 72f 73f
5:30 26 31 mph 1004.4mb 72f 73f
5:24 28 30 mph 1004.5mb 72f 73f
5:18 26 30 mph 1004.3mb 72f 73f
5:12 26 30 mph 1004.4mb 72f 74f
5:06 28 30 mph 1004.2mb 72f 75f
5:00 25 29 mph 1004.3mb 72f 75f
4:54 23 28 mph 1004.4mb 72f 74f
4:48 25 29 mph 1004.4mb 72f 74f
4:42 23 26 mph 1004.5mb 72f 74f
4:36 24 28 mph 1004.7mb 72f 73f
4:30 24 26 mph 1004.8mb 72f 73f
4:24 24 26 mph 1004.8mb 73f 73f
4:18 24 25 mph 1004.9mb 73f 72f
4:12 23 25 mph 1005mb 73f 72f
4:06 22 24 mph 1005mb 73f 72f
4:00 23 24 mph 1005.1mb 73f 72f
3:54 18 22 mph 1005.3mb 73f 72f
3:48 20 22 mph 1005.4mb 73f 72f
3:42 20 23 mph 1005.4mb 73f 73f
3:36 22 24 mph 1005.4mb 73f 73f
3:30 22 24 mph 1005.5mb 73f 73f
3:24 23 26 mph 1005.5mb 73f 73f
3:18 24 25 mph 1005.6mb 73f 73f
3:12 22 24 mph 1005.7mb 73f 73f
3:06 22 24 mph 1005.9mb 73f 73f
3:00 23 25 mph 1005.9mb 73f 74f
2:54 24 26 mph 1005.9mb 73f 74f
2:48 22 23 mph 1006.1mb 73f 73f
2:42 20 26 mph 1006.1mb 73f 74f
2:36 24 26 mph 1006.2mb 72f 75f
2:30 22 23 mph 1006.3mb 72f 74f
2:24 22 25 mph 1006.1mb 71f 74f
2:18 24 26 mph 1006.2mb 71f 74f
2:12 25 29 mph 1006.4mb 71f 74f
2:06 24 25 mph 1006.4mb 71f 73f
2:00 21 23 mph 1006.5mb 71f 74f
1:54 22 23 mph 1006.7mb 72f 75f
1:48 18 21 mph 1006.9mb 72f 75f
1:42 17 21 mph 1006.9mb 73f 74f
1:36 18 21 mph 1006.9mb 73f 74f
1:30 20 23 mph 1006.9mb 73f 75f
1:24 21 23 mph 1007mb 73f 75f
1:18 22 23 mph 1007mb 73f 74f
1:12 20 22 mph 1007.2mb 73f 74f
1:06 21 26 mph 1007.4mb 72f 75f
1:00 24 26 mph 1007.5mb 72f 75f
12:54 24 26 mph 1007.6mb 73f 75f
12:48 24 25 mph 1007.7mb 73f 76f
12:42 23 26 mph 1007.8mb 73f 76f
12:36 24 26 mph 1007.7mb 73f 76f
12:30 22 23 mph 1007.8mb 73f 76f
12:24 20 25 mph 1007.8mb 73f 76f
12:18 21 24 mph 1007.8mb 73f 76f
12:12 20 22 mph 1007.7mb 73f 76f
12:06 18 21 mph 1007.8mb 73f 76f
12:00 20 21 mph 1008mb 73f 75f
11:54 20 21 mph 1008.1mb 72f 75f
11:48 17 18 mph 1008.2mb 72f 75f
11:42 17 18 mph 1008.3mb 72f 74f
11:36 17 18 mph 1008.3mb 72f 74f
11:30 16 17 mph 1008.3mb 72f 74f
11:24 16 17 mph 1008.4mb 72f 74f
11:18 16 16 mph 1008.4mb 72f 74f
11:12 14 15 mph 1008.5mb 72f 73f
11:06 14 15 mph 1008.5mb 72f 73f
11:00 13 15 mph 1008.6mb 72f 73f
10:54 14 15 mph 1008.7mb 72f 72f
10:48 13 14 mph 1008.8mb 71f 72f
10:42 14 16 mph 1008.9mb 71f 72f
10:36 13 14 mph 1009.1mb 71f 73f
10:30 11 14 mph 1009.1mb 72f 72f
10:24 10 13 mph 1009.2mb 72f 72f
10:18 10 11 mph 1009.1mb 72f 72f
10:12 10 13 mph 1009.2mb 72f 71f
10:06 11 13 mph 1009.2mb 72f 71f
10:00 13 14 mph 1009.3mb 72f 70f
9:54 13 14 mph 1009.4mb 72f 70f
9:48 14 14 mph 1009.4mb 72f 70f
9:42 11 13 mph 1009.5mb 72f 70f
9:36 10 11 mph 1009.6mb 72f 70f
9:30 10 11 mph 1009.7mb 72f 70f
9:24 10 13 mph 1009.8mb 72f 70f
9:18 13 15 mph 1009.7mb 72f 69f
9:12 13 13 mph 1009.8mb 72f 69f
9:06 14 16 mph 1009.9mb 72f 69f
9:00 14 15 mph 1010mb 72f 69f
8:54 13 14 mph 1009.9mb 72f 68f
8:48 10 13 mph 1010mb 72f 68f
8:42 11 14 mph 1010.1mb 72f 68f
8:36 13 14 mph 1010.1mb 72f 68f
8:30 11 13 mph 1010.1mb 72f 67f
8:24 14 15 mph 1010.2mb 72f 67f
8:18 13 16 mph 1010.1mb 72f 67f
8:12 14 16 mph 1010.2mb 71f 68f
8:06 11 13 mph 1010.1mb 71f 67f
8:00 10 13 mph 1010.1mb 71f 67f
7:54 11 13 mph 1010.1mb 71f 67f
7:48 11 13 mph 1010.1mb 71f 67f
7:42 10 11 mph 1010.1mb 71f 67f
7:36 9 11 mph 1010.1mb 71f 67f
7:30 10 13 mph 1010.1mb 71f 67f
7:24 11 13 mph 1010mb 71f 67f
7:18 10 11 mph 1009.9mb 71f 67f
7:12 10 11 mph 1010mb 71f 67f
7:06 9 11 mph 1010.1mb 71f 67f
7:00 10 13 mph 1010.1mb 71f 67f
6:54 11 13 mph 1010mb 71f 67f
6:48 9 10 mph 1009.9mb 71f 67f
6:42 9 13 mph 1009.9mb 71f 67f
6:36 10 13 mph 1010mb 72f 67f
6:30 11 11 mph 1010.1mb 72f 67f
6:24 10 11 mph 1010.1mb 72f 67f
6:18 9 11 mph 1010.1mb 72f 67f
6:12 10 13 mph 1010.2mb 72f 67f
6:06 11 13 mph 1010.2mb 71f 67f
6:00 10 11 mph 1010.2mb 71f 67f
5:54 9 10 mph 1010.1mb 71f 67f
5:48 9 11 mph 1010.1mb 71f 67f
5:42 10 13 mph 1010.1mb 71f 67f
5:36 11 13 mph 1010.1mb 71f 67f
5:30 10 11 mph 1010.1mb 71f 67f
5:24 11 14 mph 1010.2mb 70f 67f
5:18 13 15 mph 1010.2mb 69f 67f
5:12 11 14 mph 1010mb 69f 67f
5:06 13 14 mph 1009.9mb 69f 67f
5:00 13 13 mph 1009.9mb 70f 67f
4:54 11 13 mph 1010.1mb 70f 67f
4:48 11 13 mph 1010.2mb 71f 67f
4:42 10 11 mph 1010.2mb 71f 67f
4:36 10 13 mph 1010.1mb 72f 67f
4:30 10 13 mph 1010.2mb 72f 67f
4:24 10 13 mph 1010.2mb 72f 67f
4:18 9 11 mph 1010.1mb 72f 67f
4:12 10 11 mph 1010.1mb 73f 67f
4:06 10 11 mph 1010mb 73f 67f
4:00 9 10 mph 1010mb 73f 67f
3:54 9 11 mph 1010mb 73f 67f
3:48 9 11 mph 1010.2mb 73f 67f
3:42 10 13 mph 1010.2mb 73f 67f
3:36 10 13 mph 1010.2mb 73f 67f
3:30 11 13 mph 1010.3mb 73f 67f
3:24 10 13 mph 1010.2mb 73f 67f
3:18 10 11 mph 1010.3mb 73f 68f
3:12 10 11 mph 1010.3mb 73f 68f
3:06 10 11 mph 1010.4mb 73f 68f
3:00 10 13 mph 1010.4mb 73f 68f
2:54 11 15 mph 1010.6mb 73f 69f
2:48 14 15 mph 1010.6mb - -
2:42 11 14 mph 1010.8mb - -
2:36 11 14 mph 1010.9mb - -
2:30 13 15 mph 1011mb 73f 69f
2:24 14 15 mph 1011mb 73f 69f
2:18 14 16 mph 1011.1mb 73f 69f
2:12 13 14 mph 1011.2mb 73f 69f
2:06 11 13 mph 1011.2mb 73f 69f
2:00 10 13 mph 1011.3mb 73f 69f
1:54 11 14 mph 1011.5mb 73f 69f
1:48 10 11 mph 1011.6mb 73f -
1:42 9 10 mph 1011.7mb 73f -
1:36 8 9 mph 1011.7mb 73f -
1:30 8 9 mph 1011.8mb 73f 69f
1:24 9 11 mph 1011.9mb 74f 69f
1:18 10 11 mph 1012mb 74f 69f
1:12 9 10 mph 1012.2mb 74f 69f
1:06 8 9 mph 1012.2mb 74f 69f
1:00 8 10 mph 1012.3mb 74f 69f
12:54 9 11 mph 1012.3mb 74f 69f
12:48 9 10 mph 1012.3mb 74f 69f
12:42 9 11 mph 1012.4mb 74f 69f
12:36 9 11 mph 1012.5mb 73f 69f
12:30 10 11 mph 1012.6mb 73f 70f
12:24 9 10 mph 1012.6mb 73f 70f
12:18 9 10 mph 1012.9mb 73f 70f
12:12 8 9 mph 1013mb 73f 69f
12:06 8 9 mph 1013.1mb 73f 69f
12:00 8 10 mph 1013.2mb 73f 69f
Do 06/22 11:54 8 10 mph 1013.2mb 73f 69f
11:48 9 10 mph 1013.3mb 73f 70f
11:42 9 10 mph 1013.3mb 73f 69f
11:36 8 11 mph 1013.3mb 73f 70f
11:30 9 11 mph 1013.2mb 73f 70f
11:24 9 11 mph 1013.2mb 73f 70f
11:18 9 11 mph 1013.2mb 73f 70f
11:12 9 10 mph 1013.1mb 73f 70f
11:06 10 11 mph 1013.1mb 73f 70f
11:00 10 11 mph 1013.1mb 73f 70f
10:54 9 11 mph 1013.2mb 73f 70f
10:48 10 11 mph 1013.2mb 73f 70f
10:42 10 11 mph 1013.3mb 73f 70f
10:36 9 10 mph 1013.3mb 73f 71f
10:30 9 9 mph 1013.3mb 73f 70f
10:24 8 9 mph 1013.3mb 73f 71f
10:18 8 9 mph 1013.3mb 73f 71f
10:12 9 10 mph 1013.2mb 73f 71f
10:06 8 9 mph 1013.3mb 73f 71f
10:00 8 8 mph 1013.3mb 73f 71f
9:54 7 9 mph 1013.3mb 73f 71f
9:48 7 9 mph 1013.5mb 73f 71f
9:42 8 10 mph 1013.5mb 73f 71f
9:36 9 11 mph 1013.3mb 73f 71f
9:30 10 11 mph 1013.2mb 73f 72f
9:24 10 14 mph 1013.3mb 72f 72f
9:18 11 13 mph 1013.3mb 72f 72f
9:12 11 13 mph 1013.3mb 72f 72f
9:06 11 14 mph 1013.2mb 72f 72f
9:00 11 13 mph 1013.2mb 72f 72f
8:54 13 14 mph 1013.1mb 72f 72f
8:48 13 15 mph 1013.1mb 72f 72f
8:42 13 16 mph 1013.1mb 72f 72f
8:36 13 15 mph 1013mb 72f 72f
8:30 13 16 mph 1013mb 72f 72f
8:24 11 15 mph 1013mb 72f 73f
8:18 14 17 mph - - -
8:12 13 16 mph 1013mb 71f 73f
8:06 14 17 mph 1013mb 71f 73f
8:00 14 17 mph 1013.1mb 71f 73f
7:54 16 18 mph 1013mb 71f 73f
7:48 15 18 mph 1013mb - -
7:42 16 18 mph 1012.8mb 71f 73f
7:36 15 18 mph 1012.8mb 71f 73f
7:30 18 20 mph 1012.9mb 71f 73f
7:24 15 22 mph 1012.8mb 71f 73f
7:18 16 22 mph 1012.7mb 71f 73f
7:12 18 24 mph 1012.8mb 71f 74f
7:06 21 23 mph 1012.8mb 71f 74f
7:00 22 25 mph 1012.6mb 71f 74f
6:54 22 24 mph 1012.5mb 70f 75f
6:48 20 26 mph 1012.6mb 70f 75f
6:42 24 28 mph 1012.6mb 69f 75f
6:36 22 25 mph 1012.5mb 69f 75f
6:30 23 26 mph 1012.1mb 70f 75f
6:24 25 28 mph 1012.1mb 70f 74f
6:18 23 29 mph 1012.1mb 69f 74f
6:12 25 28 mph 1012.1mb 69f 74f
6:06 25 28 mph 1012.2mb 69f 74f
6:00 28 29 mph 1012mb 69f 74f
5:48 23 25 mph 1011.8mb 69f 74f
5:42 23 26 mph 1012mb 69f 76f
5:36 21 23 mph 1012.2mb 69f 76f
5:30 22 25 mph 1012.1mb 70f 75f
5:24 24 26 mph 1012.1mb 69f 75f
5:18 23 25 mph 1012.2mb 69f 76f
5:12 22 23 mph 1012.2mb 69f 77f
5:06 23 31 mph 1012.3mb 69f 78f
5:00 28 31 mph 1012.1mb 68f 78f
4:54 22 25 mph 1012.3mb 68f 78f
4:48 21 26 mph 1012.4mb 67f 79f
4:42 22 24 mph 1012.5mb 67f 79f
4:36 17 22 mph 1012.6mb 67f 81f
4:30 22 25 mph 1012.7mb 67f 81f
4:24 11 20 mph 1012.6mb 67f 81f
4:18 17 21 mph 1012.7mb 67f 81f
4:12 17 20 mph 1012.5mb 67f 81f
4:06 11 20 mph 1012.5mb 67f 81f
4:00 11 17 mph 1012.5mb 68f 80f
3:54 6 14 mph 1012.3mb 68f 79f
3:48 11 17 mph 1012.4mb 68f 79f
3:42 14 18 mph 1012.4mb 68f 77f
3:36 16 17 mph 1012.3mb 68f 76f
3:30 16 17 mph 1012.4mb 68f 76f
3:24 15 16 mph 1012.4mb 68f 75f
3:18 16 20 mph 1012.5mb 68f 75f
3:12 17 20 mph 1012.5mb 68f 75f
3:06 18 18 mph 1012.5mb 68f 74f
3:00 15 18 mph 1012.6mb 68f 74f
2:54 17 20 mph 1012.7mb 68f 73f
2:48 20 21 mph 1012.6mb 69f 73f
2:42 20 22 mph 1012.8mb 70f 73f
2:36 18 21 mph 1012.9mb 70f 73f
2:30 20 21 mph 1013mb 71f 73f
2:24 18 21 mph 1013mb 72f 73f
2:18 18 20 mph 1013.1mb 72f 73f
2:12 18 21 mph 1013.1mb 72f 74f
2:06 17 18 mph 1013.3mb 72f 74f
2:00 15 16 mph 1013.4mb 72f 74f
1:54 15 16 mph 1013.6mb 71f 74f
1:48 14 17 mph 1013.7mb 71f 74f
1:42 15 17 mph 1013.6mb 72f 74f
1:36 16 18 mph 1013.6mb 72f 74f
1:30 15 16 mph 1013.6mb 71f 74f
1:24 14 16 mph 1013.7mb 71f 74f
1:18 14 15 mph 1013.8mb 70f 74f
1:12 13 15 mph 1014mb 70f 74f
1:06 13 14 mph 1013.9mb 70f 74f
1:00 11 14 mph 1013.9mb 70f 74f
12:54 10 11 mph 1014mb 70f 74f
12:48 10 11 mph 1014.2mb 70f 74f
12:42 7 10 mph 1014.2mb 70f 74f
12:36 9 11 mph 1014.2mb 71f 74f
12:30 8 9 mph 1014.4mb 72f 74f
12:24 8 8 mph 1014.4mb 72f 74f
12:18 8 8 mph 1014.5mb 72f 74f
12:12 7 8 mph 1014.6mb 72f 73f
12:06 7 9 mph 1014.5mb 72f 73f
12:00 7 8 mph 1014.6mb 72f 73f
11:54 8 8 mph 1014.6mb 72f 73f
11:48 7 8 mph 1014.6mb 72f 73f
11:42 8 8 mph 1014.6mb 72f 73f
11:36 8 9 mph 1014.6mb 73f 72f
11:30 9 9 mph 1014.6mb 73f 72f
11:24 9 9 mph 1014.5mb 73f 72f
11:18 8 10 mph 1014.4mb 73f 72f
11:12 9 10 mph 1014.4mb 73f 71f
11:06 9 10 mph 1014.4mb 73f 71f
11:00 9 10 mph 1014.5mb 73f 71f
10:54 8 9 mph 1014.7mb 72f 71f
10:48 8 9 mph 1014.8mb 72f 71f
10:42 8 8 mph 1014.8mb 72f 71f
10:36 8 9 mph 1014.9mb 72f 71f
10:30 8 8 mph 1015.1mb 72f 70f
10:24 8 9 mph 1015.2mb 72f 70f
10:18 9 9 mph 1015.2mb 72f 70f
10:12 8 8 mph 1015.2mb 72f 70f
10:06 7 9 mph 1015.3mb 72f 70f
10:00 8 9 mph 1015.4mb 72f 69f
9:54 8 9 mph 1015.4mb 72f 69f
9:48 6 7 mph 1015.5mb 72f 69f
9:42 6 6 mph 1015.6mb 72f 69f
9:36 6 7 mph 1015.7mb 72f 69f
9:30 7 8 mph 1015.8mb 72f 69f
9:24 8 9 mph 1015.8mb 72f 69f
9:18 3 5 mph 1015.9mb 72f 69f
9:12  -  1 mph 1016mb 72f 70f
9:06 1 3 mph 1016mb 71f 69f
9:00 2 3 mph 1016mb 71f 69f
8:54 1 2 mph 1015.8mb 71f 69f
8:48 3 5 mph 1015.9mb 71f 69f
8:42 3 5 mph 1015.9mb 71f 69f
8:36 3 6 mph 1016mb 71f 69f
8:30 7 8 mph 1015.9mb 71f 69f
8:24 6 8 mph 1015.8mb 71f 68f
8:18 7 10 mph 1015.8mb 71f 68f
8:12 9 10 mph 1015.6mb 71f 68f
8:06 7 9 mph 1015.7mb 71f 67f
8:00 8 9 mph 1015.7mb 71f 67f
7:54 7 9 mph 1015.6mb 70f 67f
7:48 8 9 mph 1015.5mb 70f 66f
7:42 9 10 mph 1015.6mb 70f 66f
7:36 10 11 mph 1015.6mb 70f 66f
7:30 10 11 mph 1015.4mb 70f 65f
7:24 10 11 mph 1015.5mb 71f 65f
7:18 9 10 mph 1015.5mb 71f 65f
7:12 8 10 mph 1015.4mb 71f 65f
7:06 9 10 mph 1015.4mb 71f 65f
7:00 10 11 mph 1015.4mb 71f 65f
6:54 10 10 mph 1015.4mb 71f 65f
6:48 9 10 mph 1015.3mb 71f 65f
6:42 8 9 mph 1015.3mb 71f 65f
6:36 8 9 mph 1015.1mb 71f 65f
6:30 8 9 mph 1015mb 70f 65f
6:24 7 8 mph 1015mb 70f 64f
6:18 7 8 mph 1015.1mb 70f 64f
6:12 7 8 mph 1015.1mb 68f 64f
6:06 7 7 mph 1015mb 69f 64f
6:00 7 7 mph 1015mb 69f 64f
5:54 7 8 mph 1015mb 69f 64f
5:48 6 7 mph 1014.9mb 69f 64f
5:42 6 7 mph 1014.9mb 69f 64f
5:36 6 8 mph 1014.8mb 69f 65f
5:30 7 8 mph 1014.7mb 69f 65f
5:24 7 8 mph 1014.6mb 70f 65f
5:18 7 8 mph 1014.6mb 70f 65f
5:12 6 7 mph 1014.6mb 70f 65f
5:06 6 7 mph 1014.5mb 70f 66f
5:00 6 7 mph 1014.4mb 70f 66f
4:54 6 6 mph 1014.4mb 69f 65f
4:48 6 6 mph 1014.4mb 69f 65f
4:42 5 6 mph 1014.3mb 69f 65f
4:36 5 6 mph 1014.3mb 69f 65f
4:30 6 7 mph 1014.3mb 70f 66f
4:24 7 8 mph 1014.2mb 70f 66f
4:18 7 8 mph 1014.2mb 71f 66f
4:12 6 8 mph 1014.2mb 71f 65f
4:06 6 7 mph 1014.2mb 71f 65f
4:00 6 7 mph 1014.2mb 72f 65f
3:54 5 6 mph 1014.1mb 72f 66f
3:48 3 5 mph 1014.1mb 72f 66f
3:42 3 5 mph 1014mb 72f 66f
3:36 2 3 mph 1013.9mb 72f 66f
3:30 3 5 mph 1013.9mb 72f 66f
3:24 3 5 mph 1013.8mb 72f 66f
3:18 5 6 mph 1013.8mb 72f 66f
3:12 3 7 mph 1013.8mb 72f 67f
3:06 6 7 mph 1013.7mb 72f 67f
3:00 5 7 mph 1013.5mb 72f 67f
2:54 7 8 mph 1013.5mb 72f 67f
2:48 6 7 mph 1013.5mb - -
2:42 6 7 mph 1013.4mb - -
2:36 6 7 mph 1013.4mb - -
2:30 6 7 mph 1013.6mb 72f 67f
2:24 6 7 mph 1013.6mb 72f 67f
2:18 7 9 mph 1013.6mb 72f 67f
2:12 8 9 mph 1013.5mb 72f 67f
2:06 8 9 mph 1013.5mb 72f 67f
2:00 7 9 mph 1013.6mb 72f 67f
1:54 9 10 mph 1013.6mb 72f 67f
1:48 9 9 mph 1013.7mb 72f -
1:42 7 7 mph 1013.7mb 72f -
1:36 3 6 mph 1013.6mb 72f -
1:30 3 5 mph 1013.6mb 72f 68f
1:24 3 5 mph 1013.6mb 72f 68f
1:18 3 5 mph 1013.6mb 72f 68f
1:12 2 5 mph 1013.5mb 72f 69f
1:06 5 6 mph 1013.4mb 72f 69f
1:00 5 6 mph 1013.5mb 73f 69f
12:54 5 6 mph 1013.5mb 73f 69f
12:48 5 7 mph 1013.5mb 73f 69f
12:42 6 7 mph 1013.6mb 73f 69f
12:36 6 8 mph 1013.5mb 73f 69f
12:30 7 9 mph 1013.4mb 73f 70f
12:24 8 10 mph 1013.3mb 73f 70f
12:18 8 9 mph 1013.2mb 73f 70f
12:12 8 9 mph 1013.3mb 73f 70f
12:06 7 7 mph 1013.3mb 73f 70f
12:00 7 8 mph 1013.2mb 73f 70f
Mi 06/21 11:54 8 8 mph 1013.2mb 73f 70f
11:48 7 9 mph 1013.2mb 73f 70f
11:42 8 9 mph 1013.1mb 73f 71f
11:36 8 9 mph 1013mb 73f 70f
11:30 8 9 mph 1013mb 73f 70f
11:24 7 8 mph 1012.9mb 73f 71f
11:18 7 9 mph 1012.9mb 73f 71f
11:12 8 10 mph 1012.9mb 73f 71f
11:06 9 9 mph 1012.8mb 73f 71f
11:00 7 8 mph 1012.8mb 74f 71f
10:54 6 8 mph 1012.8mb 74f 71f
10:48 7 8 mph 1012.8mb 74f 71f
10:42 6 7 mph 1012.8mb 74f 71f
10:36 7 8 mph 1012.8mb 74f 71f
10:30 6 8 mph 1012.8mb 74f 71f
10:24 7 9 mph 1012.8mb 74f 71f
10:18 9 10 mph 1012.8mb 74f 71f
10:12 8 10 mph 1012.6mb 74f 72f
10:06 8 10 mph 1012.5mb 74f 71f
10:00 10 11 mph 1012.5mb 74f 71f
9:54 10 11 mph 1012.5mb 74f 71f
9:48 10 11 mph 1012.5mb 74f 71f
9:42 10 11 mph 1012.3mb 74f 71f
9:36 10 13 mph 1012.3mb 74f 71f
9:30 11 15 mph 1012.2mb 74f 71f
9:24 14 15 mph 1012.2mb 74f 71f
9:18 13 14 mph 1012mb - -
9:12 13 14 mph 1011.9mb 74f 72f
9:06 13 14 mph 1011.8mb 74f 72f
9:00 13 14 mph 1011.7mb 74f 72f
8:54 11 14 mph 1011.7mb 74f 72f
8:48 11 13 mph 1011.6mb 74f 72f
8:42 11 14 mph 1011.5mb 74f 72f
8:36 11 14 mph 1011.4mb 74f 72f
8:30 11 13 mph 1011.4mb 74f 72f
8:24 11 14 mph 1011.4mb 74f 72f
8:18 14 16 mph 1011.4mb - -
8:12 13 14 mph 1011.4mb 73f 72f
8:06 13 14 mph 1011.3mb 73f 73f
8:00 11 15 mph 1011.3mb 72f 73f
7:54 13 15 mph 1011.4mb 72f 73f
7:48 15 16 mph 1011.4mb 72f 73f
7:42 15 20 mph 1011.3mb 72f 74f
7:36 16 21 mph 1011.3mb 72f 75f
7:30 18 23 mph 1011.2mb 71f 76f
7:24 18 24 mph 1011mb 71f 76f
7:18 21 25 mph 1010.9mb 71f 77f
7:12 20 25 mph 1010.8mb 71f 78f
7:06 16 20 mph 1010.6mb 71f 78f
7:00 18 21 mph 1010.5mb 71f 78f
6:54 15 17 mph 1010.5mb 71f 78f
6:48 15 18 mph 1010.5mb 71f 78f
6:42 15 22 mph 1010.2mb 71f 78f
6:36 21 24 mph 1010mb 71f 78f
6:30 17 21 mph 1009.9mb 71f 78f
6:24 16 20 mph 1009.9mb 71f 77f
6:18 15 20 mph 1009.9mb 71f 77f
6:12 15 18 mph 1009.9mb 71f 77f
6:06 21 23 mph 1009.7mb 71f 75f
6:00 17 24 mph 1009.7mb 71f 75f
5:54 23 25 mph 1009.6mb 71f 75f
5:48 21 23 mph 1009.6mb 71f 75f
5:42 17 21 mph 1009.6mb 71f 77f
5:36 17 18 mph 1009.5mb 71f 75f
5:30 15 17 mph 1009.6mb 71f 78f
5:24 15 16 mph 1009.6mb 70f 78f
5:18 10 16 mph 1009.7mb 70f 80f
5:12 14 17 mph 1009.8mb 70f 81f
5:06 16 20 mph 1009.8mb 70f 81f
5:00 14 21 mph 1009.8mb 70f 81f
4:54 17 23 mph 1009.7mb 70f 81f
4:48 20 24 mph 1009.9mb 70f 81f
4:42 15 25 mph 1009.7mb 70f 79f
4:36 20 24 mph 1009.5mb 70f 76f
4:30 22 24 mph 1009.4mb 70f 76f
4:24 21 23 mph 1009.5mb 70f 77f
4:18 11 22 mph 1009.6mb 70f 79f
4:12 17 22 mph 1009.7mb 70f 80f
4:06 15 22 mph 1009.6mb 70f 80f
4:00 18 24 mph 1009.8mb 71f 80f
3:54 15 25 mph 1009.6mb 71f 80f
3:48 20 24 mph 1009.8mb 71f 81f
3:42 18 22 mph 1009.8mb 71f 81f
3:36 18 24 mph 1009.8mb 71f 80f
3:30 21 24 mph 1009.8mb 71f 80f
3:24 22 26 mph 1009.9mb 71f 80f
3:18 20 26 mph 1010.1mb 71f 80f
3:12 18 26 mph 1010mb 71f 80f
3:06 18 26 mph 1010mb 71f 80f
3:00 14 30 mph 1009.9mb 71f 80f
2:54 18 26 mph 1010.2mb 71f 80f
2:48 17 21 mph 1010.1mb 72f 80f
2:42 20 25 mph 1010.2mb 72f 80f
2:36 22 25 mph 1010.4mb 72f 80f
2:30 20 29 mph 1010.3mb 72f 80f
2:24 22 29 mph 1010.5mb 73f 80f
2:18 26 31 mph 1010.7mb 73f 80f
2:12 21 30 mph 1010.5mb 73f 80f
2:06 21 24 mph 1010.5mb 73f 80f
2:00 22 24 mph 1010.6mb 73f 80f
1:54 23 29 mph 1010.8mb 73f 80f
1:48 18 24 mph - 73f -
1:42 16 22 mph - 73f -
1:36 20 26 mph - 73f -
1:30 20 29 mph 1010.7mb 73f 80f
1:24 20 24 mph 1010.9mb 72f 80f
1:18 16 28 mph 1010.9mb 72f 80f
1:12 14 22 mph 1011mb 73f 80f
1:06 22 24 mph 1010.9mb 72f 80f
1:00 20 22 mph 1011.1mb 73f 80f
12:54 20 25 mph 1011.1mb 74f 80f
12:48 15 23 mph 1011.1mb 74f 80f
12:42 20 24 mph 1011.1mb 73f 80f
12:36 20 23 mph 1011.3mb 73f 80f
12:30 20 29 mph 1011.3mb 73f 80f
12:24 16 22 mph 1011.3mb 73f 80f
12:18 21 25 mph 1011.4mb 73f 80f
12:12 20 23 mph 1011.5mb 73f 80f
12:06 15 22 mph 1011.4mb 73f 80f
12:00 20 24 mph 1011.6mb 73f 80f
11:54 18 31 mph 1011.6mb 73f 80f
11:48 20 28 mph 1011.7mb 74f 79f
11:42 18 23 mph 1011.6mb 74f 80f
11:36 17 22 mph 1011.7mb 75f 79f
11:30 16 22 mph 1011.7mb 75f 79f
11:24 15 23 mph 1011.7mb 75f 79f
11:18 16 20 mph 1011.9mb 75f 79f
11:12 17 24 mph 1011.9mb 75f 79f
11:06 18 22 mph 1012mb 75f 78f
11:00 14 18 mph 1012mb 74f 78f
10:54 16 20 mph 1012mb 74f 78f
10:48 14 20 mph 1011.9mb 74f 78f
10:42 11 22 mph 1012mb 74f 78f
10:36 20 24 mph 1012.1mb 74f 78f
10:30 20 23 mph 1012.2mb 74f 78f
10:24 14 21 mph 1012mb 74f 78f
10:18 13 15 mph 1012mb 74f 78f
10:12 16 18 mph 1012.1mb 74f 78f
10:06 9 15 mph 1012.1mb 74f 77f
10:00 14 18 mph 1012.1mb 74f 77f
9:54 11 15 mph 1012.2mb 74f 77f
9:48 15 17 mph 1012.2mb 73f 77f
9:42 13 15 mph 1012.1mb 73f 76f
9:36 9 14 mph 1012.2mb 73f 76f
9:30 10 11 mph 1012.2mb 73f 75f
9:24 8 13 mph 1012.2mb 73f 75f
9:18 8 13 mph 1012.4mb 73f 74f
9:12 9 14 mph 1012.6mb 73f 74f
9:06 10 11 mph 1012.6mb 73f 74f
9:00 9 10 mph 1012.6mb 73f 72f
8:54 8 9 mph 1012.7mb 73f 72f
8:48 7 9 mph 1012.7mb 72f 71f
8:42 8 9 mph 1012.7mb 72f 71f
8:36 8 9 mph 1012.8mb 72f 71f
8:30 9 9 mph 1012.8mb 72f 70f
8:24 8 10 mph 1012.8mb 72f 70f
8:18 9 11 mph 1012.8mb 72f 70f
8:12 10 11 mph 1012.7mb 72f 69f
8:06 9 9 mph 1012.7mb 72f 69f
8:00 9 10 mph 1012.7mb 72f 68f
7:54 10 11 mph 1012.8mb 72f 67f
7:48 10 11 mph 1012.8mb 72f 67f
7:42 10 11 mph 1012.8mb 72f 67f
7:36 10 11 mph 1012.8mb 72f 67f
7:30 10 11 mph 1012.8mb 72f 66f
7:24 11 15 mph 1012.9mb 72f 66f
7:18 14 15 mph 1012.8mb 72f 66f
7:12 14 17 mph 1012.8mb 72f 66f
7:06 14 16 mph 1012.8mb 72f 66f
7:00 14 15 mph 1012.9mb 72f 67f
6:54 13 14 mph 1012.9mb 72f 66f
6:48 11 14 mph 1012.9mb 72f 67f
6:42 13 14 mph 1012.7mb 71f 67f
6:36 11 13 mph 1012.7mb 71f 67f
6:30 10 11 mph 1012.8mb 71f 66f
6:24 9 9 mph 1012.9mb 71f 67f
6:18 7 8 mph 1012.9mb 71f 67f
6:12 8 9 mph 1013mb 71f 66f
6:06 9 10 mph 1012.9mb 71f 67f
6:00 10 11 mph 1012.9mb 71f 66f
5:54 9 10 mph 1012.9mb 71f 67f
5:48 9 10 mph 1012.9mb 71f 67f
5:42 10 10 mph 1012.9mb 70f 67f
5:36 9 11 mph 1012.9mb 70f 67f
5:30 9 10 mph 1012.9mb 70f 67f
5:24 8 9 mph 1012.9mb 70f 67f
5:18 7 8 mph - - -
5:12 8 9 mph 1012.9mb 70f 66f
5:06 8 11 mph 1012.9mb 70f 67f
5:00 10 11 mph 1012.8mb 70f 66f
4:54 9 10 mph 1012.8mb 70f 67f
4:48 8 10 mph 1012.7mb 70f 67f
4:42 9 11 mph 1012.7mb 70f 67f
4:36 3 7 mph 1012.8mb 70f 67f
4:30  -  5 mph 1012.6mb 70f 67f
4:24 5 7 mph 1012.6mb 71f 68f
4:18 6 8 mph 1012.6mb 71f 68f
4:12 8 9 mph 1012.6mb 71f 68f
4:06 8 10 mph 1012.5mb 71f 68f
4:00 10 13 mph 1012.6mb 71f 68f
3:54 11 13 mph 1012.7mb 72f 68f
3:48 13 14 mph 1012.8mb 72f 68f
3:42 10 13 mph 1012.8mb 72f 68f
3:36 10 13 mph 1012.8mb 72f 68f
3:30 9 13 mph 1012.9mb 73f 68f
3:24 10 13 mph 1013mb 73f 67f
3:18 11 14 mph 1013mb 73f 67f
3:12 13 14 mph 1013mb 73f 67f
3:06 13 14 mph 1012.9mb 73f 67f
3:00 11 13 mph 1013mb 73f 67f
2:54 11 13 mph 1013mb 73f 67f
2:48 11 14 mph 1013mb 73f 67f
2:42 13 15 mph 1013.1mb 73f 67f
2:36 14 16 mph 1013.1mb 73f 67f
2:30 15 17 mph 1013.1mb 73f 67f
2:24 13 15 mph 1013.1mb 73f 68f
2:18 13 15 mph 1013.1mb 73f 68f
2:12 13 15 mph 1013mb 73f 68f
2:06 13 16 mph 1013.1mb 73f 68f